Time;durP1;ratioP1;P1;durP2;ratioP2;P2;SDS_P1;SDS_P2;PMS_P1;PMS_P2;Temp;Humidity;BMP_temperature;BMP_pressure;BME280_temperature;BME280_humidity;BME280_pressure;Samples;Min_cycle;Max_cycle;Signal;HPM_P1;HPM_P2
2021/03/02 00:00:50;;;;;;;;;;;;;;;0.07;81.21;102758.58;1556736;89;20308;-76
2021/03/02 00:03:37;;;;;;;;;;;;;;;0.10;81.24;102746.93;1585149;89;20318;-75
2021/03/02 00:06:21;;;;;;;;;;;;;;;0.14;81.17;102741.64;1574677;89;20676;-75
2021/03/02 00:09:06;;;;;;;;;;;;;;;0.16;81.15;102746.42;1561073;89;20312;-75
2021/03/02 00:11:51;;;;;;;;;;;;;;;0.16;81.20;102738.40;1559273;89;20329;-75
2021/03/02 00:14:37;;;;;;;;;;;;;;;0.18;81.27;102738.09;1580259;88;21506;-75
2021/03/02 00:17:33;;;;;;;;;;;;;;;0.20;81.26;102739.06;1585152;89;20297;-75
2021/03/02 00:20:23;;;;;;;;;;;;;;;0.24;81.30;102737.59;1569344;89;20315;-76
2021/03/02 00:23:18;;;;;;;;;;;;;;;0.26;81.33;102742.37;1571044;88;20334;-75
2021/03/02 00:26:02;;;;;;;;;;;;;;;0.28;81.35;102739.53;1572939;89;20330;-76
2021/03/02 00:28:50;;;;;;;;;;;;;;;0.30;81.31;102745.19;1576017;89;20335;-76
2021/03/02 00:31:34;;;;;;;;;;;;;;;0.29;81.18;102734.53;1577276;88;20287;-75
2021/03/02 00:34:19;;;;;;;;;;;;;;;0.24;81.11;102737.19;1575238;89;20320;-75
2021/03/02 00:37:04;;;;;;;;;;;;;;;0.22;81.25;102731.53;1576421;89;20293;-75
2021/03/02 00:39:48;;;;;;;;;;;;;;;0.20;81.24;102737.80;1593118;88;20328;-75
2021/03/02 00:42:33;;;;;;;;;;;;;;;0.19;81.23;102734.77;1580022;89;20405;-75
2021/03/02 00:45:21;;;;;;;;;;;;;;;0.16;81.18;102728.22;1565004;88;20245;-75
2021/03/02 00:48:06;;;;;;;;;;;;;;;0.12;81.23;102727.55;1594807;88;20355;-75
2021/03/02 00:50:51;;;;;;;;;;;;;;;0.15;81.38;102725.19;1594747;88;20615;-75
2021/03/02 00:53:35;;;;;;;;;;;;;;;0.15;81.32;102718.83;1570915;87;20327;-76
2021/03/02 00:56:20;;;;;;;;;;;;;;;0.15;81.30;102715.41;1584828;89;20573;-76
2021/03/02 00:59:04;;;;;;;;;;;;;;;0.11;81.32;102706.72;1549112;91;20346;-76
2021/03/02 01:01:49;;;;;;;;;;;;;;;0.10;81.30;102709.17;1535574;91;20276;-75
2021/03/02 01:04:33;;;;;;;;;;;;;;;0.10;81.42;102704.08;1574212;89;20338;-75
2021/03/02 01:07:18;;;;;;;;;;;;;;;0.11;81.49;102710.53;1554505;91;20317;-76
2021/03/02 01:10:08;;;;;;;;;;;;;;;0.10;81.34;102713.86;1542544;90;20371;-76
2021/03/02 01:12:52;;;;;;;;;;;;;;;0.09;81.32;102711.23;1542524;91;20294;-75
2021/03/02 01:15:37;;;;;;;;;;;;;;;0.09;81.42;102719.73;1600184;88;20264;-75
2021/03/02 01:18:21;;;;;;;;;;;;;;;0.05;81.25;102716.52;1591177;86;20298;-75
2021/03/02 01:21:06;;;;;;;;;;;;;;;-0.01;81.23;102720.88;1600680;87;20269;-75
2021/03/02 01:23:50;;;;;;;;;;;;;;;-0.05;81.32;102734.59;1584178;88;20476;-75
2021/03/02 01:26:34;;;;;;;;;;;;;;;-0.09;81.37;102737.72;1613449;88;20290;-75
2021/03/02 01:29:19;;;;;;;;;;;;;;;-0.12;81.38;102738.80;1608222;86;20276;-75
2021/03/02 01:32:03;;;;;;;;;;;;;;;-0.14;81.46;102741.26;1580520;88;20308;-77
2021/03/02 01:34:48;;;;;;;;;;;;;;;-0.14;81.47;102736.56;1600023;88;20484;-76
2021/03/02 01:37:33;;;;;;;;;;;;;;;-0.14;81.48;102737.83;1596097;88;20733;-75
2021/03/02 01:40:18;;;;;;;;;;;;;;;-0.14;81.62;102737.83;1583372;88;20305;-75
2021/03/02 01:43:03;;;;;;;;;;;;;;;-0.18;81.55;102743.52;1610722;88;20323;-76
2021/03/02 01:45:47;;;;;;;;;;;;;;;-0.23;81.51;102739.81;1615928;87;20298;-76
2021/03/02 01:48:37;;;;;;;;;;;;;;;-0.22;81.63;102726.31;1598072;86;20342;-76
2021/03/02 01:51:22;;;;;;;;;;;;;;;-0.22;81.61;102722.50;1607004;88;20417;-75
2021/03/02 01:54:07;;;;;;;;;;;;;;;-0.23;81.46;102720.74;1600234;87;20310;-75
2021/03/02 01:56:51;;;;;;;;;;;;;;;-0.26;81.51;102713.80;1589278;88;20319;-75
2021/03/02 01:59:36;;;;;;;;;;;;;;;-0.27;81.40;102712.05;1611392;86;20301;-75
2021/03/02 02:02:27;;;;;;;;;;;;;;;-0.30;81.39;102706.77;1596935;89;20302;-76
2021/03/02 02:05:13;;;;;;;;;;;;;;;-0.32;81.38;102707.47;1589504;88;21436;-75
2021/03/02 02:08:00;;;;;;;;;;;;;;;-0.34;81.49;102703.56;1574644;88;20322;-75
2021/03/02 02:10:51;;;;;;;;;;;;;;;-0.35;81.44;102706.49;1599798;88;20580;-74
2021/03/02 02:13:45;;;;;;;;;;;;;;;-0.38;81.38;102702.88;1573584;88;635568;-75
2021/03/02 02:16:32;;;;;;;;;;;;;;;-0.39;81.56;102700.73;1575403;89;20311;-76
2021/03/02 02:19:38;;;;;;;;;;;;;;;-0.40;81.49;102703.18;1578469;88;20445;-75
2021/03/02 02:22:46;;;;;;;;;;;;;;;-0.41;81.58;102693.80;1576024;88;20315;-75
2021/03/02 02:25:57;;;;;;;;;;;;;;;-0.44;81.42;102685.98;1575198;88;20326;-75
2021/03/02 02:28:44;;;;;;;;;;;;;;;-0.49;81.46;102686.97;1593204;88;20293;-75
2021/03/02 02:31:29;;;;;;;;;;;;;;;-0.55;81.43;102689.16;1599439;89;20334;-75
2021/03/02 02:34:16;;;;;;;;;;;;;;;-0.63;81.24;102690.34;1599680;89;20314;-75
2021/03/02 02:37:03;;;;;;;;;;;;;;;-0.73;81.20;102685.47;1575969;88;20221;-75
2021/03/02 02:39:48;;;;;;;;;;;;;;;-0.80;81.27;102684.59;1574532;89;20344;-76
2021/03/02 02:42:33;;;;;;;;;;;;;;;-0.83;81.42;102685.28;1574544;91;20338;-75
2021/03/02 02:45:18;;;;;;;;;;;;;;;-0.81;81.57;102682.84;1575115;88;20335;-75
2021/03/02 02:48:03;;;;;;;;;;;;;;;-0.82;81.44;102679.42;1575023;88;20314;-75
2021/03/02 02:50:51;;;;;;;;;;;;;;;-0.85;81.41;102679.22;1569475;89;20401;-75
2021/03/02 02:53:36;;;;;;;;;;;;;;;-0.88;81.33;102676.48;1584306;87;20312;-75
2021/03/02 02:56:21;;;;;;;;;;;;;;;-0.92;81.38;102664.37;1600074;88;20297;-75
2021/03/02 02:59:17;;;;;;;;;;;;;;;-0.93;81.38;102667.70;1594572;88;20325;-75
2021/03/02 03:02:05;;;;;;;;;;;;;;;-0.98;81.29;102670.73;1598176;89;20297;-75
2021/03/02 03:05:02;;;;;;;;;;;;;;;-0.98;81.47;102670.73;1601306;88;20330;-74
2021/03/02 03:07:53;;;;;;;;;;;;;;;-0.98;81.50;102663.11;1594771;88;21001;-74
2021/03/02 03:10:39;;;;;;;;;;;;;;;-0.98;81.51;102661.84;1600081;88;20309;-75
2021/03/02 03:13:26;;;;;;;;;;;;;;;-0.98;81.49;102661.45;1599521;89;20322;-75
2021/03/02 03:16:11;;;;;;;;;;;;;;;-0.98;81.58;102656.77;1591231;88;21258;-75
2021/03/02 03:18:58;;;;;;;;;;;;;;;-0.98;81.56;102655.10;1614475;87;21059;-75
2021/03/02 03:21:43;;;;;;;;;;;;;;;-0.98;81.56;102647.88;1601043;87;20269;-75
2021/03/02 03:24:29;;;;;;;;;;;;;;;-0.98;81.56;102647.88;1600858;89;20290;-75
2021/03/02 03:27:14;;;;;;;;;;;;;;;-1.01;81.49;102645.62;1585300;89;20214;-75
2021/03/02 03:29:59;;;;;;;;;;;;;;;-1.01;81.49;102643.48;1592294;88;20276;-75
2021/03/02 03:32:50;;;;;;;;;;;;;;;-1.05;81.40;102650.06;1565310;89;20269;-75
2021/03/02 03:35:35;;;;;;;;;;;;;;;-1.05;81.55;102646.64;1574853;89;20543;-74
2021/03/02 03:38:19;;;;;;;;;;;;;;;-1.06;81.53;102648.69;1546905;90;20290;-74
2021/03/02 03:41:04;;;;;;;;;;;;;;;-1.08;81.41;102642.25;1519929;91;20305;-74
2021/03/02 03:43:48;;;;;;;;;;;;;;;-1.09;81.46;102643.42;1546434;91;20479;-74
2021/03/02 03:46:32;;;;;;;;;;;;;;;-1.12;81.52;102640.69;1517363;93;20312;-74
2021/03/02 03:49:17;;;;;;;;;;;;;;;-1.10;81.69;102641.27;1543386;90;20704;-75
2021/03/02 03:52:03;;;;;;;;;;;;;;;-1.07;81.69;102649.47;1539734;90;20310;-74
2021/03/02 03:54:49;;;;;;;;;;;;;;;-1.07;81.66;102646.94;1540986;91;20352;-76
2021/03/02 03:57:34;;;;;;;;;;;;;;;-1.07;81.70;102646.94;1562849;91;20340;-75
2021/03/02 04:00:20;;;;;;;;;;;;;;;-1.06;81.78;102651.23;1539382;91;20295;-75
2021/03/02 04:03:05;;;;;;;;;;;;;;;-1.04;81.69;102663.63;1553330;90;20320;-75
2021/03/02 04:05:50;;;;;;;;;;;;;;;-1.09;81.53;102669.69;1563846;90;20324;-75
2021/03/02 04:08:35;;;;;;;;;;;;;;;-1.09;81.67;102667.14;1569422;90;20326;-75
2021/03/02 04:11:20;;;;;;;;;;;;;;;-1.09;81.67;102669.69;1542035;91;20315;-75
2021/03/02 04:14:04;;;;;;;;;;;;;;;-1.08;81.72;102673.98;1535963;93;20311;-75
2021/03/02 04:16:49;;;;;;;;;;;;;;;-1.07;81.73;102674.47;1563389;91;20577;-75
2021/03/02 04:19:34;;;;;;;;;;;;;;;-1.08;81.68;102673.98;1555907;90;20310;-74
2021/03/02 04:22:19;;;;;;;;;;;;;;;-1.07;81.70;102673.59;1544942;90;20330;-74
2021/03/02 04:25:04;;;;;;;;;;;;;;;-1.09;81.70;102669.69;1540027;91;20331;-74
2021/03/02 04:27:49;;;;;;;;;;;;;;;-1.10;81.67;102675.54;1559382;90;20302;-74
2021/03/02 04:30:34;;;;;;;;;;;;;;;-1.10;81.65;102677.20;1553988;90;20303;-75
2021/03/02 04:33:19;;;;;;;;;;;;;;;-1.13;81.66;102681.69;1537339;93;20340;-75
2021/03/02 04:36:04;;;;;;;;;;;;;;;-1.15;81.55;102684.91;1528033;91;20351;-74
2021/03/02 04:38:49;;;;;;;;;;;;;;;-1.23;81.48;102683.14;1539220;91;20306;-75
2021/03/02 04:41:34;;;;;;;;;;;;;;;-1.24;81.63;102686.46;1562175;91;20296;-75
2021/03/02 04:44:18;;;;;;;;;;;;;;;-1.24;81.71;102677.58;1526784;91;20457;-75
2021/03/02 04:47:04;;;;;;;;;;;;;;;-1.22;81.76;102684.02;1516436;93;21098;-75
2021/03/02 04:49:49;;;;;;;;;;;;;;;-1.22;81.71;102684.02;1536760;92;20318;-75
2021/03/02 04:52:34;;;;;;;;;;;;;;;-1.24;81.72;102685.19;1593545;88;20305;-75
2021/03/02 04:55:19;;;;;;;;;;;;;;;-1.24;81.71;102681.39;1597514;88;20296;-75
2021/03/02 04:58:03;;;;;;;;;;;;;;;-1.28;81.56;102683.63;1588441;88;20554;-75
2021/03/02 05:00:48;;;;;;;;;;;;;;;-1.28;81.74;102680.70;1593602;88;20305;-75
2021/03/02 05:03:33;;;;;;;;;;;;;;;-1.28;81.76;102674.35;1561418;89;20304;-75
2021/03/02 05:06:17;;;;;;;;;;;;;;;-1.29;81.80;102670.45;1545328;90;20306;-74
2021/03/02 05:09:02;;;;;;;;;;;;;;;-1.30;81.78;102664.88;1568289;89;20295;-74
2021/03/02 05:11:47;;;;;;;;;;;;;;;-1.32;81.73;102663.52;1553938;89;20350;-74
2021/03/02 05:14:32;;;;;;;;;;;;;;;-1.32;81.82;102660.97;1574149;88;20571;-75
2021/03/02 05:17:16;;;;;;;;;;;;;;;-1.31;81.86;102660.20;1537120;92;20322;-74
2021/03/02 05:20:02;;;;;;;;;;;;;;;-1.32;81.78;102659.70;1563940;90;20318;-76
2021/03/02 05:22:46;;;;;;;;;;;;;;;-1.32;81.84;102664.78;1558437;89;20303;-74
2021/03/02 05:25:31;;;;;;;;;;;;;;;-1.31;81.81;102657.66;1544014;91;20675;-74
2021/03/02 05:28:17;;;;;;;;;;;;;;;-1.32;81.76;102666.44;1643357;85;20312;-75
2021/03/02 05:31:02;;;;;;;;;;;;;;;-1.32;81.88;102666.44;1671301;85;20322;-75
2021/03/02 05:33:46;;;;;;;;;;;;;;;-1.31;81.91;102665.66;1685911;84;20304;-75
2021/03/02 05:36:31;;;;;;;;;;;;;;;-1.30;81.91;102674.64;1677518;84;20297;-75
2021/03/02 05:39:16;;;;;;;;;;;;;;;-1.31;81.80;102676.69;1658074;84;20331;-75
2021/03/02 05:42:01;;;;;;;;;;;;;;;-1.32;81.89;102677.47;1652686;85;20959;-75
2021/03/02 05:44:46;;;;;;;;;;;;;;;-1.29;81.97;102676.79;1651432;85;20676;-76
2021/03/02 05:47:33;;;;;;;;;;;;;;;-1.27;82.04;102677.37;1659277;84;21261;-75
2021/03/02 05:50:18;;;;;;;;;;;;;;;-1.25;82.06;102673.28;1657477;84;20338;-76
2021/03/02 05:53:03;;;;;;;;;;;;;;;-1.23;81.98;102669.58;1661417;84;20320;-76
2021/03/02 05:55:48;;;;;;;;;;;;;;;-1.23;81.95;102675.53;1667409;84;20296;-76
2021/03/02 05:58:35;;;;;;;;;;;;;;;-1.22;82.02;102677.67;1679626;84;20324;-76
2021/03/02 06:01:19;;;;;;;;;;;;;;;-1.23;81.84;102683.14;1670911;85;20683;-75
2021/03/02 06:04:05;;;;;;;;;;;;;;;-1.21;81.90;102677.78;1660086;84;20344;-75
2021/03/02 06:06:49;;;;;;;;;;;;;;;-1.17;82.00;102682.66;1626235;86;21087;-75
2021/03/02 06:09:34;;;;;;;;;;;;;;;-1.13;82.04;102686.77;1659744;84;20289;-79
2021/03/02 06:12:18;;;;;;;;;;;;;;;-1.06;82.05;102693.12;1658992;84;20314;-75
2021/03/02 06:15:04;;;;;;;;;;;;;;;-1.06;82.02;102690.58;1655605;86;20300;-74
2021/03/02 06:18:09;;;;;;;;;;;;;;;-0.97;82.16;102691.14;1646018;85;20295;-75
2021/03/02 06:20:57;;;;;;;;;;;;;;;-0.89;82.18;102687.43;1642335;85;20284;-77
2021/03/02 06:23:53;;;;;;;;;;;;;;;-0.77;82.23;102679.70;1647755;85;20548;-76
2021/03/02 06:26:38;;;;;;;;;;;;;;;-0.67;82.21;102679.50;1648166;86;20337;-74
2021/03/02 06:29:22;;;;;;;;;;;;;;;-0.57;82.20;102679.69;1622276;86;20356;-75
2021/03/02 06:32:08;;;;;;;;;;;;;;;-0.47;82.13;102677.78;1636740;86;21064;-76
2021/03/02 06:34:53;;;;;;;;;;;;;;;-0.36;82.18;102665.73;1640820;86;20599;-77
2021/03/02 06:37:42;;;;;;;;;;;;;;;-0.26;82.19;102670.59;1639764;86;20327;-77
2021/03/02 06:40:45;;;;;;;;;;;;;;;-0.14;82.23;102671.73;1642411;86;20534;-77
2021/03/02 06:43:39;;;;;;;;;;;;;;;-0.04;82.17;102674.92;1644700;86;20677;-76
2021/03/02 06:46:27;;;;;;;;;;;;;;;0.11;82.32;102677.47;1644722;86;20334;-76
2021/03/02 06:49:12;;;;;;;;;;;;;;;0.27;82.41;102691.58;1678497;84;20311;-76
2021/03/02 06:51:58;;;;;;;;;;;;;;;0.47;82.57;102688.06;1676401;84;20328;-76
2021/03/02 06:54:45;;;;;;;;;;;;;;;0.63;82.52;102689.00;1654656;84;20314;-76
2021/03/02 06:57:30;;;;;;;;;;;;;;;0.80;82.54;102684.88;1675814;84;20286;-76
2021/03/02 07:00:16;;;;;;;;;;;;;;;0.94;82.45;102692.90;1680117;84;20280;-76
2021/03/02 07:03:00;;;;;;;;;;;;;;;1.11;82.63;102689.99;1676899;84;20310;-76
2021/03/02 07:05:48;;;;;;;;;;;;;;;1.30;82.66;102686.80;1667191;84;20549;-76
2021/03/02 07:08:33;;;;;;;;;;;;;;;1.48;82.67;102688.20;1678450;84;20310;-76
2021/03/02 07:11:18;;;;;;;;;;;;;;;1.68;82.81;102680.31;1672628;84;167693;-76
2021/03/02 07:14:05;;;;;;;;;;;;;;;1.93;82.84;102682.96;1664117;83;20291;-77
2021/03/02 07:16:50;;;;;;;;;;;;;;;2.22;82.90;102685.72;1673014;84;20596;-76
2021/03/02 07:19:35;;;;;;;;;;;;;;;2.48;82.90;102689.59;1674722;84;20289;-77
2021/03/02 07:22:20;;;;;;;;;;;;;;;2.74;82.82;102677.20;1680376;84;20309;-76
2021/03/02 07:25:09;;;;;;;;;;;;;;;2.93;82.75;102682.01;1668344;84;20247;-76
2021/03/02 07:27:53;;;;;;;;;;;;;;;3.12;82.60;102679.05;1680335;83;20210;-76
2021/03/02 07:30:39;;;;;;;;;;;;;;;3.30;82.60;102682.45;1665490;84;20205;-76
2021/03/02 07:33:23;;;;;;;;;;;;;;;3.48;82.66;102678.19;1655962;84;20296;-76
2021/03/02 07:36:08;;;;;;;;;;;;;;;3.71;82.71;102685.60;1637348;86;20192;-76
2021/03/02 07:39:12;;;;;;;;;;;;;;;3.93;82.66;102681.92;1643171;84;20454;-76
2021/03/02 07:41:57;;;;;;;;;;;;;;;4.15;82.66;102681.17;1643252;86;20572;-76
2021/03/02 07:45:07;;;;;;;;;;;;;;;4.37;82.61;102681.66;1657107;86;20196;-76
2021/03/02 07:47:53;;;;;;;;;;;;;;;4.53;82.49;102684.06;1650946;84;20275;-76
2021/03/02 07:50:38;;;;;;;;;;;;;;;4.76;82.60;102683.70;1672326;84;20165;-76
2021/03/02 07:53:23;;;;;;;;;;;;;;;5.00;82.56;102687.66;1676051;84;20195;-76
2021/03/02 07:56:20;;;;;;;;;;;;;;;5.20;82.31;102689.73;1677124;84;20211;-76
2021/03/02 07:59:16;;;;;;;;;;;;;;;5.34;82.24;102693.68;1674420;84;20280;-76
2021/03/02 08:02:16;;;;;;;;;;;;;;;5.41;82.15;102690.53;1674117;84;20294;-76
2021/03/02 08:05:21;;;;;;;;;;;;;;;5.51;82.06;102684.06;1678464;84;20177;-77
2021/03/02 08:08:27;;;;;;;;;;;;;;;5.62;82.03;102680.22;1668815;84;20191;-77
2021/03/02 08:11:32;;;;;;;;;;;;;;;5.71;82.15;102683.13;1628587;87;20290;-78
2021/03/02 08:14:20;;;;;;;;;;;;;;;5.70;82.16;102690.36;1584044;88;20327;-79
2021/03/02 08:17:05;;;;;;;;;;;;;;;5.67;82.16;102688.09;1585018;88;20360;-79
2021/03/02 08:20:00;;;;;;;;;;;;;;;5.71;82.29;102693.80;1560877;90;20350;-78
2021/03/02 08:22:46;;;;;;;;;;;;;;;5.72;82.33;102692.98;1582519;88;20634;-79
2021/03/02 08:25:31;;;;;;;;;;;;;;;5.75;82.38;102693.94;1583443;90;20515;-80
2021/03/02 08:28:16;;;;;;;;;;;;;;;5.79;82.45;102694.52;1586437;87;20334;-79
2021/03/02 08:31:04;;;;;;;;;;;;;;;5.87;82.48;102690.95;1598759;88;20320;-79
2021/03/02 08:33:49;;;;;;;;;;;;;;;5.91;82.62;102684.73;1652570;86;20660;-79
2021/03/02 08:36:34;;;;;;;;;;;;;;;6.03;82.63;102688.16;1650860;85;20326;-78
2021/03/02 08:39:20;;;;;;;;;;;;;;;6.14;82.55;102687.25;1653741;86;20626;-78
2021/03/02 08:42:06;;;;;;;;;;;;;;;6.22;82.48;102695.69;1657142;84;20289;-79
2021/03/02 08:44:54;;;;;;;;;;;;;;;6.28;82.35;102692.43;1669794;85;20300;-79
2021/03/02 08:47:39;;;;;;;;;;;;;;;6.34;82.27;102689.20;1668675;84;20321;-79
2021/03/02 08:50:36;;;;;;;;;;;;;;;6.36;82.23;102685.86;1668441;84;20416;-78
2021/03/02 08:53:34;;;;;;;;;;;;;;;6.33;82.26;102687.05;1634371;84;20267;-78
2021/03/02 08:56:20;;;;;;;;;;;;;;;6.29;82.19;102687.76;1665157;84;20297;-78
2021/03/02 08:59:10;;;;;;;;;;;;;;;6.27;82.39;102681.28;1664582;84;20289;-79
2021/03/02 09:01:55;;;;;;;;;;;;;;;6.26;82.41;102684.67;1666969;85;20565;-78
2021/03/02 09:04:40;;;;;;;;;;;;;;;6.28;82.50;102686.88;1666675;84;20616;-78
2021/03/02 09:07:25;;;;;;;;;;;;;;;6.29;82.42;102692.89;1672223;83;130770;-78
2021/03/02 09:10:16;;;;;;;;;;;;;;;6.28;82.50;102689.86;1689650;83;20291;-78
2021/03/02 09:13:06;;;;;;;;;;;;;;;6.32;82.44;102693.00;1654147;85;20308;-78
2021/03/02 09:15:49;;;;;;;;;;;;;;;6.32;82.42;102703.28;1663735;85;20424;-78
2021/03/02 09:18:34;;;;;;;;;;;;;;;6.32;82.42;102705.84;1667808;85;20312;-78
2021/03/02 09:21:18;;;;;;;;;;;;;;;6.36;82.51;102707.70;1665084;85;20210;-78
2021/03/02 09:24:03;;;;;;;;;;;;;;;6.40;82.43;102701.85;1667849;85;20948;-77
2021/03/02 09:26:56;;;;;;;;;;;;;;;6.40;82.34;102702.27;1660847;85;20357;-77
2021/03/02 09:29:46;;;;;;;;;;;;;;;6.40;82.34;102700.56;1682430;83;20573;-77
2021/03/02 09:32:32;;;;;;;;;;;;;;;6.39;82.21;102712.95;1680757;85;20309;-77
2021/03/02 09:35:17;;;;;;;;;;;;;;;6.38;82.32;102713.77;1673244;85;20225;-77
2021/03/02 09:38:01;;;;;;;;;;;;;;;6.42;82.30;102714.75;1678851;85;20627;-76
2021/03/02 09:40:46;;;;;;;;;;;;;;;6.44;82.38;102710.54;1678721;85;20297;-77
2021/03/02 09:43:35;;;;;;;;;;;;;;;6.53;82.46;102714.72;1677245;84;20296;-77
2021/03/02 09:46:20;;;;;;;;;;;;;;;6.62;82.38;102714.62;1675939;85;20184;-77
2021/03/02 09:49:04;;;;;;;;;;;;;;;6.67;82.19;102712.61;1678409;83;20287;-78
2021/03/02 09:51:48;;;;;;;;;;;;;;;6.71;82.20;102717.03;1675097;83;20225;-77
2021/03/02 09:54:34;;;;;;;;;;;;;;;6.76;82.31;102705.20;1678730;84;20255;-78
2021/03/02 09:57:19;;;;;;;;;;;;;;;6.88;82.37;102701.72;1680375;85;20307;-79
2021/03/02 10:00:10;;;;;;;;;;;;;;;6.95;82.21;102704.55;1678949;84;20299;-79
2021/03/02 10:02:56;;;;;;;;;;;;;;;7.05;82.25;102706.12;1677560;84;20451;-79
2021/03/02 10:05:53;;;;;;;;;;;;;;;7.13;82.18;102704.27;1677239;84;20313;-79
2021/03/02 10:08:40;;;;;;;;;;;;;;;7.21;82.15;102701.52;1659919;85;20315;-79
2021/03/02 10:11:26;;;;;;;;;;;;;;;7.32;82.07;102696.67;1665151;83;20313;-78
2021/03/02 10:14:11;;;;;;;;;;;;;;;7.39;82.09;102698.61;1683549;85;20305;-79
2021/03/02 10:16:56;;;;;;;;;;;;;;;7.49;82.08;102694.61;1684800;83;20312;-79
2021/03/02 10:19:40;;;;;;;;;;;;;;;7.55;81.95;102696.95;1678627;85;20314;-79
2021/03/02 10:22:25;;;;;;;;;;;;;;;7.63;81.96;102699.34;1660816;84;20307;-79
2021/03/02 10:25:11;;;;;;;;;;;;;;;7.72;81.92;102698.74;1630930;86;20306;-79
2021/03/02 10:27:56;;;;;;;;;;;;;;;7.81;81.88;102700.68;1671165;84;20332;-79
2021/03/02 10:30:40;;;;;;;;;;;;;;;7.88;81.84;102699.61;1660980;84;20311;-79
2021/03/02 10:33:25;;;;;;;;;;;;;;;7.98;81.72;102704.20;1642985;86;21005;-79
2021/03/02 10:36:29;;;;;;;;;;;;;;;8.05;81.62;102700.50;1655373;84;20340;-79
2021/03/02 10:39:15;;;;;;;;;;;;;;;8.11;81.57;102698.97;1657210;84;20404;-80
2021/03/02 10:42:01;;;;;;;;;;;;;;;8.16;81.57;102702.55;1669309;84;20317;-79
2021/03/02 10:44:45;;;;;;;;;;;;;;;8.25;81.56;102701.92;1671431;84;20289;-80
2021/03/02 10:47:29;;;;;;;;;;;;;;;8.35;81.51;102703.92;1649630;85;20338;-82
2021/03/02 10:50:15;;;;;;;;;;;;;;;8.45;81.54;102703.33;1650957;85;20292;-78
2021/03/02 10:52:59;;;;;;;;;;;;;;;8.54;81.36;102702.28;1646700;85;21034;-79
2021/03/02 10:55:44;;;;;;;;;;;;;;;8.60;81.35;102690.84;1640738;85;21228;-78
2021/03/02 10:58:29;;;;;;;;;;;;;;;8.70;81.28;102685.49;1662071;85;20290;-78
2021/03/02 11:01:14;;;;;;;;;;;;;;;8.79;81.30;102686.14;1654265;85;20332;-78
2021/03/02 11:03:58;;;;;;;;;;;;;;;8.85;81.19;102678.09;1668147;85;20348;-77
2021/03/02 11:06:43;;;;;;;;;;;;;;;8.98;81.28;102674.52;1670162;85;20699;-77
2021/03/02 11:09:27;;;;;;;;;;;;;;;9.06;81.06;102673.00;1660830;85;20289;-77
2021/03/02 11:12:12;;;;;;;;;;;;;;;9.14;81.12;102666.30;1658171;83;77184;-78
2021/03/02 11:14:57;;;;;;;;;;;;;;;9.24;81.05;102666.55;1622067;86;20337;-78
2021/03/02 11:17:41;;;;;;;;;;;;;;;9.30;81.01;102659.36;1648303;86;20610;-78
2021/03/02 11:20:26;;;;;;;;;;;;;;;9.33;80.81;102662.43;1642286;86;20311;-77
2021/03/02 11:23:12;;;;;;;;;;;;;;;9.35;80.87;102652.59;1635868;86;21210;-78
2021/03/02 11:25:57;;;;;;;;;;;;;;;9.48;80.82;102651.98;1650877;86;20298;-77
2021/03/02 11:28:41;;;;;;;;;;;;;;;9.54;80.79;102647.36;1632432;86;20329;-77
2021/03/02 11:31:26;;;;;;;;;;;;;;;9.60;80.66;102641.91;1612908;87;20310;-78
2021/03/02 11:34:10;;;;;;;;;;;;;;;9.70;80.51;102645.97;1617815;87;20345;-78
2021/03/02 11:36:55;;;;;;;;;;;;;;;9.74;80.05;102638.31;1622642;87;20288;-77
2021/03/02 11:39:40;;;;;;;;;;;;;;;9.72;80.07;102641.70;1620944;87;20190;-78
2021/03/02 11:42:25;;;;;;;;;;;;;;;9.76;80.11;102642.22;1609043;87;20312;-77
2021/03/02 11:45:11;;;;;;;;;;;;;;;9.82;80.02;102636.75;1613645;87;20282;-78
2021/03/02 11:47:56;;;;;;;;;;;;;;;9.93;80.15;102633.05;1618396;87;20162;-78
2021/03/02 11:50:40;;;;;;;;;;;;;;;10.01;80.17;102634.06;1629120;87;20297;-79
2021/03/02 11:53:24;;;;;;;;;;;;;;;10.08;80.19;102632.47;1612561;87;20266;-78
2021/03/02 11:56:09;;;;;;;;;;;;;;;10.13;80.12;102626.54;1614396;87;20809;-78
2021/03/02 11:58:54;;;;;;;;;;;;;;;10.23;80.20;102631.06;1615606;87;20266;-77
2021/03/02 12:01:38;;;;;;;;;;;;;;;10.31;80.03;102631.62;1616221;87;20314;-78
2021/03/02 12:04:22;;;;;;;;;;;;;;;10.35;79.81;102630.41;1615425;87;20330;-78
2021/03/02 12:07:08;;;;;;;;;;;;;;;10.39;79.84;102623.58;1617509;87;20288;-78
2021/03/02 12:09:53;;;;;;;;;;;;;;;10.41;79.81;102625.31;1617989;87;20340;-78
2021/03/02 12:12:39;;;;;;;;;;;;;;;10.43;79.73;102621.04;1615924;87;20330;-77
2021/03/02 12:15:24;;;;;;;;;;;;;;;10.48;79.75;102612.93;1606423;87;20293;-77
2021/03/02 12:18:08;;;;;;;;;;;;;;;10.54;79.67;102604.41;1611152;87;20639;-77
2021/03/02 12:20:53;;;;;;;;;;;;;;;10.58;79.61;102603.19;1612524;87;20315;-77
2021/03/02 12:23:40;;;;;;;;;;;;;;;10.62;79.56;102597.64;1657990;85;20332;-76
2021/03/02 12:26:24;;;;;;;;;;;;;;;10.64;79.48;102595.94;1660346;85;20297;-76
2021/03/02 12:29:09;;;;;;;;;;;;;;;10.69;79.49;102596.88;1662157;85;20309;-77
2021/03/02 12:31:54;;;;;;;;;;;;;;;10.74;79.46;102596.95;1663419;85;20316;-77
2021/03/02 12:34:38;;;;;;;;;;;;;;;10.80;79.41;102592.74;1655049;84;20923;-77
2021/03/02 12:37:23;;;;;;;;;;;;;;;10.88;79.04;102592.86;1600820;84;5000850;-77
2021/03/02 12:40:08;;;;;;;;;;;;;;;10.92;78.87;102591.59;1602532;88;20306;-77
2021/03/02 12:42:53;;;;;;;;;;;;;;;11.01;78.85;102586.10;1604255;88;20316;-77
2021/03/02 12:45:38;;;;;;;;;;;;;;;11.05;78.28;102584.00;1569559;89;20322;-76
2021/03/02 12:48:22;;;;;;;;;;;;;;;11.09;78.21;102582.77;1567297;89;20294;-77
2021/03/02 12:51:07;;;;;;;;;;;;;;;11.15;77.97;102580.27;1589382;88;20316;-76
2021/03/02 12:53:51;;;;;;;;;;;;;;;11.18;77.92;102588.50;1576241;89;20295;-77
2021/03/02 12:56:36;;;;;;;;;;;;;;;11.18;77.62;102588.50;1595334;88;20395;-77
2021/03/02 12:59:21;;;;;;;;;;;;;;;11.17;77.61;102583.74;1602733;88;20301;-77
2021/03/02 13:02:08;;;;;;;;;;;;;;;11.23;77.97;102581.23;1584752;89;20301;-77
2021/03/02 13:04:53;;;;;;;;;;;;;;;11.29;78.07;102583.03;1579733;89;20350;-77
2021/03/02 13:07:37;;;;;;;;;;;;;;;11.33;77.44;102582.64;1573685;88;20365;-78
2021/03/02 13:10:23;;;;;;;;;;;;;;;11.33;77.35;102582.22;1587903;88;20303;-77
2021/03/02 13:13:08;;;;;;;;;;;;;;;11.37;77.05;102581.83;1563854;90;20698;-77
2021/03/02 13:15:53;;;;;;;;;;;;;;;11.41;77.50;102585.77;1563125;90;20345;-77
2021/03/02 13:18:38;;;;;;;;;;;;;;;11.44;77.65;102586.20;1570285;90;20306;-77
2021/03/02 13:21:22;;;;;;;;;;;;;;;11.47;77.77;102588.84;1571372;90;20425;-76
2021/03/02 13:24:07;;;;;;;;;;;;;;;11.51;77.68;102591.48;1614604;88;20349;-76
2021/03/02 13:26:53;;;;;;;;;;;;;;;11.55;77.65;102585.91;1556246;89;20318;-76
2021/03/02 13:29:43;;;;;;;;;;;;;;;11.57;77.62;102580.31;1565793;89;20307;-77
2021/03/02 13:32:46;;;;;;;;;;;;;;;11.61;77.55;102577.78;1536956;91;20324;-76
2021/03/02 13:35:31;;;;;;;;;;;;;;;11.64;77.48;102576.08;1544397;89;20552;-77
2021/03/02 13:38:16;;;;;;;;;;;;;;;11.66;77.34;102578.25;1572891;89;20202;-77
2021/03/02 13:41:03;;;;;;;;;;;;;;;11.66;77.33;102576.53;1572840;89;20176;-77
2021/03/02 13:43:47;;;;;;;;;;;;;;;11.67;77.23;102574.81;1562973;89;20310;-77
2021/03/02 13:46:32;;;;;;;;;;;;;;;11.68;77.20;102575.26;1573231;91;20470;-77
2021/03/02 13:49:17;;;;;;;;;;;;;;;11.70;77.02;102574.84;1570854;89;20192;-76
2021/03/02 13:52:02;;;;;;;;;;;;;;;11.69;77.00;102570.52;1565682;91;20270;-76
2021/03/02 13:54:47;;;;;;;;;;;;;;;11.70;76.96;102564.48;1573337;91;20196;-77
2021/03/02 13:57:35;;;;;;;;;;;;;;;11.70;76.95;102571.83;1573265;89;20267;-77
2021/03/02 14:00:21;;;;;;;;;;;;;;;11.70;76.99;102565.78;1574666;90;20309;-77
2021/03/02 14:03:06;;;;;;;;;;;;;;;11.70;77.10;102567.94;1575770;90;20307;-77
2021/03/02 14:05:51;;;;;;;;;;;;;;;11.71;77.01;102566.22;1627954;88;20314;-76
2021/03/02 14:08:36;;;;;;;;;;;;;;;11.70;76.99;102565.35;1614004;88;20594;-76
2021/03/02 14:11:21;;;;;;;;;;;;;;;11.69;76.97;102555.84;1599772;89;20602;-77
2021/03/02 14:14:06;;;;;;;;;;;;;;;11.70;76.96;102556.70;1575738;89;20647;-77
2021/03/02 14:16:52;;;;;;;;;;;;;;;11.70;76.92;102553.69;1569279;89;20516;-76
2021/03/02 14:19:38;;;;;;;;;;;;;;;11.70;76.84;102543.75;1567031;89;20307;-76